createdAt,value
2018-09-02T00:01:50.364Z,68.64
2018-09-02T00:04:19.690Z,68.21
2018-09-02T00:06:49.094Z,68.77
2018-09-02T00:09:19.217Z,68.72
2018-09-02T00:11:48.563Z,67.87
2018-09-02T00:14:17.946Z,67.94
2018-09-02T00:16:47.471Z,68.44
2018-09-02T00:19:18.063Z,68.35
2018-09-02T00:21:47.549Z,68.51
2018-09-02T00:24:16.952Z,68.69
2018-09-02T00:26:46.355Z,68.76
2018-09-02T00:29:15.870Z,68.67
2018-09-02T00:31:45.809Z,68.88
2018-09-02T00:34:15.222Z,69.56
2018-09-02T00:36:44.540Z,68.80
2018-09-02T00:39:13.937Z,68.99
2018-09-02T00:41:43.503Z,68.77
2018-09-02T00:44:12.918Z,69.17
2018-09-02T00:46:42.500Z,68.91
2018-09-02T00:49:11.857Z,69.23
2018-09-02T00:51:41.298Z,68.97
2018-09-02T00:54:11.024Z,68.93
2018-09-02T00:56:40.794Z,69.26
2018-09-02T00:59:10.287Z,69.90
2018-09-02T01:01:39.698Z,69.34
2018-09-02T01:04:09.540Z,69.23
2018-09-02T01:06:38.951Z,68.91
2018-09-02T01:09:09.010Z,70.44
2018-09-02T01:11:38.534Z,69.82
2018-09-02T01:14:08.489Z,70.24
2018-09-02T01:16:37.999Z,69.97
2018-09-02T01:19:07.543Z,69.35
2018-09-02T01:21:37.066Z,69.54
2018-09-02T01:24:06.511Z,69.52
2018-09-02T01:26:35.872Z,69.73
2018-09-02T01:29:05.275Z,69.63
2018-09-02T01:31:34.764Z,68.99
2018-09-02T01:34:04.434Z,69.70
2018-09-02T01:36:33.811Z,69.55
2018-09-02T01:39:03.329Z,69.39
2018-09-02T01:41:32.727Z,69.44
2018-09-02T01:44:02.174Z,71.26
2018-09-02T01:46:31.594Z,70.69
2018-09-02T01:49:00.989Z,71.41
2018-09-02T01:51:30.366Z,71.46
2018-09-02T01:53:59.735Z,71.37
2018-09-02T01:56:29.277Z,71.54
2018-09-02T01:58:58.659Z,71.07
2018-09-02T02:01:28.487Z,70.74
2018-09-02T02:03:57.827Z,70.45
2018-09-02T02:06:27.403Z,70.09
2018-09-02T02:08:57.008Z,69.72
2018-09-02T02:11:26.370Z,70.33
2018-09-02T02:13:55.778Z,70.73
2018-09-02T02:16:25.248Z,72.14
2018-09-02T02:18:54.650Z,72.02
2018-09-02T02:21:24.150Z,71.86
2018-09-02T02:23:53.823Z,71.18
2018-09-02T02:26:23.301Z,70.94
2018-09-02T02:28:52.821Z,71.15
2018-09-02T02:31:22.168Z,71.48
2018-09-02T02:33:51.620Z,71.98
2018-09-02T02:36:21.081Z,70.84
2018-09-02T02:38:50.588Z,71.25
2018-09-02T02:41:20.155Z,71.78
2018-09-02T02:43:49.528Z,71.72
2018-09-02T02:46:19.104Z,72.16
2018-09-02T02:48:48.362Z,71.28
2018-09-02T02:51:17.787Z,70.59
2018-09-02T02:53:47.334Z,71.18
2018-09-02T02:56:16.669Z,70.82
2018-09-02T02:58:46.146Z,70.82
2018-09-02T03:01:15.545Z,70.71
2018-09-02T03:03:44.946Z,71.64
2018-09-02T03:06:14.349Z,71.84
2018-09-02T03:08:43.977Z,73.16
2018-09-02T03:11:13.384Z,71.51
2018-09-02T03:13:42.833Z,70.90
2018-09-02T03:16:12.312Z,70.33
2018-09-02T03:18:41.773Z,69.76
2018-09-02T03:21:11.257Z,70.30
2018-09-02T03:23:40.688Z,70.17
2018-09-02T03:26:10.127Z,70.32
2018-09-02T03:28:39.733Z,69.48
2018-09-02T03:31:09.650Z,69.14
2018-09-02T03:33:39.141Z,69.22
2018-09-02T03:36:08.544Z,69.58
2018-09-02T03:38:37.979Z,69.58
2018-09-02T03:41:08.098Z,70.26
2018-09-02T03:43:37.551Z,70.57
2018-09-02T03:46:06.974Z,70.06
2018-09-02T03:48:36.378Z,70.87
2018-09-02T03:51:05.711Z,70.83
2018-09-02T03:53:35.449Z,70.67
2018-09-02T03:56:05.007Z,70.63
2018-09-02T03:58:34.581Z,71.10
2018-09-02T04:01:04.106Z,71.07
2018-09-02T04:03:33.519Z,71.40
2018-09-02T04:06:03.104Z,71.04
2018-09-02T04:08:32.527Z,70.90
2018-09-02T04:11:02.161Z,70.39
2018-09-02T04:13:31.626Z,70.35
2018-09-02T04:16:01.339Z,70.15
2018-09-02T04:18:30.728Z,70.38
2018-09-02T04:21:00.162Z,70.58
2018-09-02T04:23:29.648Z,70.57
2018-09-02T04:25:59.038Z,70.07
2018-09-02T04:28:28.389Z,70.62
2018-09-02T04:30:57.790Z,70.64
2018-09-02T04:33:27.187Z,70.99
2018-09-02T04:35:56.899Z,70.99
2018-09-02T04:38:26.534Z,70.52
2018-09-02T04:40:55.939Z,70.16
2018-09-02T04:43:25.316Z,70.26
2018-09-02T04:45:54.855Z,70.87
2018-09-02T04:48:24.247Z,70.80
2018-09-02T04:50:53.608Z,70.57
2018-09-02T04:53:23.015Z,70.96
2018-09-02T04:55:52.421Z,70.31
2018-09-02T04:58:21.819Z,70.43
2018-09-02T05:00:51.531Z,70.25
2018-09-02T05:03:21.174Z,70.19
2018-09-02T05:05:50.627Z,70.19
2018-09-02T05:08:20.083Z,70.05
2018-09-02T05:10:49.527Z,70.15
2018-09-02T05:13:19.127Z,70.48
2018-09-02T05:15:48.522Z,71.25
2018-09-02T05:18:18.040Z,70.34
2018-09-02T05:20:47.409Z,70.05
2018-09-02T05:23:17.111Z,68.95
2018-09-02T05:25:46.568Z,69.93
2018-09-02T05:28:15.911Z,69.59
2018-09-02T05:30:45.326Z,69.44
2018-09-02T05:33:14.679Z,69.21
2018-09-02T05:35:44.102Z,68.85
2018-09-02T05:38:13.538Z,68.80
2018-09-02T05:40:42.956Z,69.11
2018-09-02T05:43:12.432Z,67.68
2018-09-02T05:45:41.884Z,67.47
2018-09-02T05:48:11.230Z,67.39
2018-09-02T05:50:40.720Z,67.50
2018-09-02T05:53:10.133Z,67.25
2018-09-02T05:55:39.449Z,67.52
2018-09-02T05:58:08.799Z,66.56
2018-09-02T06:00:38.201Z,66.49
2018-09-02T06:03:07.671Z,66.27
2018-09-02T06:05:37.011Z,65.35
2018-09-02T06:08:06.687Z,65.84
2018-09-02T06:10:36.051Z,65.60
2018-09-02T06:13:05.565Z,65.17
2018-09-02T06:15:34.958Z,65.29
2018-09-02T06:18:04.383Z,65.35
2018-09-02T06:20:33.797Z,64.38
2018-09-02T06:23:03.227Z,64.84
2018-09-02T06:25:32.638Z,65.37
2018-09-02T06:28:02.100Z,65.80
2018-09-02T06:30:31.805Z,65.48
2018-09-02T06:33:01.504Z,66.01
2018-09-02T06:35:31.381Z,65.94
2018-09-02T06:38:00.787Z,65.93
2018-09-02T06:40:30.187Z,65.11
2018-09-02T06:42:59.623Z,64.96
2018-09-02T06:45:29.039Z,64.30
2018-09-02T06:47:58.364Z,64.63
2018-09-02T06:50:27.699Z,64.78
2018-09-02T06:52:57.862Z,64.56
2018-09-02T06:55:27.146Z,64.82
2018-09-02T06:57:56.491Z,64.89
2018-09-02T07:00:25.939Z,64.08
2018-09-02T07:02:55.381Z,64.22
2018-09-02T07:05:25.111Z,63.58
2018-09-02T07:07:54.483Z,62.86
2018-09-02T07:10:23.919Z,62.79
2018-09-02T07:12:53.287Z,62.75
2018-09-02T07:15:22.759Z,62.57
2018-09-02T07:17:52.276Z,62.03
2018-09-02T07:20:21.886Z,61.38
2018-09-02T07:22:51.337Z,59.96
2018-09-02T07:25:20.758Z,59.50
2018-09-02T07:27:50.047Z,57.82
2018-09-02T07:30:19.458Z,56.22
2018-09-02T07:32:49.092Z,55.87
2018-09-02T07:35:18.503Z,54.61
2018-09-02T07:37:48.350Z,53.82
2018-09-02T07:40:17.944Z,53.10
2018-09-02T07:42:47.470Z,53.20
2018-09-02T07:45:17.940Z,51.77
2018-09-02T07:47:47.463Z,50.51
2018-09-02T07:50:17.418Z,50.03
2018-09-02T07:52:47.130Z,48.75
2018-09-02T07:55:16.551Z,47.80
2018-09-02T07:57:46.079Z,46.56
2018-09-02T08:00:15.548Z,47.15
2018-09-02T08:02:45.311Z,46.47
2018-09-02T08:05:14.666Z,45.48
2018-09-02T08:07:44.051Z,44.06
2018-09-02T08:10:13.510Z,44.17
2018-09-02T08:12:43.306Z,41.53
2018-09-02T08:15:12.634Z,41.44
2018-09-02T08:17:42.025Z,39.88
2018-09-02T08:20:11.784Z,38.50
2018-09-02T08:22:44.098Z,39.00
2018-09-02T08:25:13.853Z,37.56
2018-09-02T08:27:43.323Z,37.15
2018-09-02T08:30:13.810Z,35.26
2018-09-02T08:32:43.372Z,36.08
2018-09-02T08:35:12.967Z,36.54
2018-09-02T08:37:42.557Z,35.22
2018-09-02T08:40:12.101Z,34.82
2018-09-02T08:42:41.670Z,33.92
2018-09-02T08:45:11.310Z,33.88
2018-09-02T08:47:40.686Z,31.46
2018-09-02T08:50:10.163Z,32.48
2018-09-02T08:52:39.567Z,30.76
2018-09-02T08:55:09.026Z,31.11
2018-09-02T08:57:38.522Z,29.62
2018-09-02T09:00:09.112Z,28.86
2018-09-02T09:02:38.540Z,29.15
2018-09-02T09:05:07.924Z,30.08
2018-09-02T09:07:37.836Z,31.36
2018-09-02T09:10:07.786Z,31.85
2018-09-02T09:12:37.492Z,32.41
2018-09-02T09:15:07.034Z,29.64
2018-09-02T09:17:36.607Z,27.84
2018-09-02T09:20:06.386Z,27.79
2018-09-02T09:22:36.467Z,26.57
2018-09-02T09:25:10.976Z,27.51
2018-09-02T09:27:41.534Z,29.48
2018-09-02T09:30:11.215Z,30.13
2018-09-02T09:32:40.743Z,29.16
2018-09-02T09:35:10.571Z,27.37
2018-09-02T09:37:39.995Z,25.97
2018-09-02T09:40:09.499Z,29.35
2018-09-02T09:42:39.019Z,31.75
2018-09-02T09:45:08.551Z,29.17
2018-09-02T09:47:37.944Z,29.21
2018-09-02T09:50:07.833Z,29.97
2018-09-02T09:52:37.680Z,27.13
2018-09-02T09:55:07.187Z,23.68
2018-09-02T09:57:36.863Z,25.45
2018-09-02T10:00:06.427Z,25.73
2018-09-02T10:02:35.861Z,24.52
2018-09-02T10:05:05.229Z,22.88
2018-09-02T10:07:34.705Z,24.64
2018-09-02T10:10:04.151Z,23.34
2018-09-02T10:12:33.689Z,21.82
2018-09-02T10:15:03.146Z,22.72
2018-09-02T10:17:32.691Z,21.48
2018-09-02T10:20:02.130Z,21.98
2018-09-02T10:22:31.520Z,22.56
2018-09-02T10:25:01.105Z,22.46
2018-09-02T10:27:30.693Z,23.96
2018-09-02T10:30:00.107Z,26.01
2018-09-02T10:32:30.333Z,24.94
2018-09-02T10:34:59.865Z,23.48
2018-09-02T10:37:29.225Z,23.29
2018-09-02T10:39:58.652Z,22.28
2018-09-02T10:42:28.208Z,20.79
2018-09-02T10:44:57.836Z,20.06
2018-09-02T10:47:27.148Z,20.55
2018-09-02T10:49:56.694Z,23.04
2018-09-02T10:52:26.179Z,25.49
2018-09-02T10:54:55.565Z,24.37
2018-09-02T10:57:25.233Z,22.40
2018-09-02T10:59:54.648Z,20.82
2018-09-02T11:02:24.160Z,19.47
2018-09-02T11:04:53.817Z,19.50
2018-09-02T11:07:23.558Z,19.04
2018-09-02T11:09:53.075Z,18.21
2018-09-02T11:12:22.673Z,19.31
2018-09-02T11:14:52.344Z,19.37
2018-09-02T11:17:22.941Z,18.58
2018-09-02T11:19:52.645Z,19.30
2018-09-02T11:22:22.048Z,18.42
2018-09-02T11:24:51.397Z,19.99
2018-09-02T11:27:20.799Z,20.03
2018-09-02T11:29:50.261Z,18.60
2018-09-02T11:32:19.701Z,18.78
2018-09-02T11:34:49.227Z,18.86
2018-09-02T11:37:18.677Z,18.78
2018-09-02T11:39:48.303Z,19.42
2018-09-02T11:42:17.913Z,18.96
2018-09-02T11:44:47.722Z,18.96
2018-09-02T11:47:17.300Z,20.83
2018-09-02T11:49:46.934Z,22.98
2018-09-02T11:52:16.515Z,26.14
2018-09-02T11:54:46.068Z,23.46
2018-09-02T11:57:15.825Z,20.19
2018-09-02T11:59:45.446Z,19.79
2018-09-02T12:02:14.919Z,19.28
2018-09-02T12:04:44.371Z,21.37
2018-09-02T12:07:13.769Z,22.56
2018-09-02T12:09:43.160Z,21.73
2018-09-02T12:12:12.659Z,20.09
2018-09-02T12:14:42.122Z,20.84
2018-09-02T12:17:11.560Z,19.93
2018-09-02T12:19:41.228Z,19.08
2018-09-02T12:22:10.664Z,18.98
2018-09-02T12:24:40.160Z,20.75
2018-09-02T12:27:10.202Z,20.85
2018-09-02T12:29:39.599Z,20.74
2018-09-02T12:32:09.565Z,19.68
2018-09-02T12:34:39.124Z,20.09
2018-09-02T12:37:08.601Z,20.86
2018-09-02T12:39:38.101Z,22.83
2018-09-02T12:42:07.742Z,22.31
2018-09-02T12:44:37.166Z,23.34
2018-09-02T12:47:06.603Z,24.03
2018-09-02T12:49:36.229Z,23.04
2018-09-02T12:52:05.666Z,23.54
2018-09-02T12:54:35.222Z,25.49
2018-09-02T12:57:04.746Z,24.23
2018-09-02T12:59:34.319Z,25.78
2018-09-02T13:02:04.087Z,24.58
2018-09-02T13:04:33.512Z,23.68
2018-09-02T13:07:02.915Z,22.29
2018-09-02T13:09:32.411Z,21.90
2018-09-02T13:12:01.843Z,23.25
2018-09-02T13:14:31.556Z,24.32
2018-09-02T13:17:01.090Z,23.72
2018-09-02T13:19:30.672Z,24.97
2018-09-02T13:22:00.226Z,25.61
2018-09-02T13:24:29.846Z,25.00
2018-09-02T13:27:01.212Z,25.17
2018-09-02T13:29:30.748Z,26.66
2018-09-02T13:32:00.298Z,27.56
2018-09-02T13:34:30.230Z,28.10
2018-09-02T13:36:59.644Z,29.22
2018-09-02T13:39:29.069Z,30.45
2018-09-02T13:42:00.447Z,29.45
2018-09-02T13:44:29.880Z,28.27
2018-09-02T13:46:59.354Z,28.63
2018-09-02T13:49:28.782Z,28.50
2018-09-02T13:51:58.298Z,30.21
2018-09-02T13:54:27.706Z,29.71
2018-09-02T13:56:57.378Z,30.79
2018-09-02T13:59:26.779Z,30.83
2018-09-02T14:01:56.286Z,29.05
2018-09-02T14:04:25.824Z,29.22
2018-09-02T14:06:55.529Z,27.91
2018-09-02T14:09:25.051Z,28.09
2018-09-02T14:11:54.559Z,28.74
2018-09-02T14:14:24.070Z,29.11
2018-09-02T14:16:53.854Z,31.51
2018-09-02T14:19:23.689Z,30.03
2018-09-02T14:21:53.113Z,30.39
2018-09-02T14:24:22.576Z,30.57
2018-09-02T14:26:52.002Z,30.35
2018-09-02T14:29:21.529Z,30.68
2018-09-02T14:31:50.991Z,31.06
2018-09-02T14:34:20.390Z,31.60
2018-09-02T14:36:49.822Z,30.98
2018-09-02T14:39:19.286Z,30.34
2018-09-02T14:41:48.947Z,32.37
2018-09-02T14:44:18.447Z,33.60
2018-09-02T14:46:48.094Z,33.87
2018-09-02T14:49:17.573Z,33.45
2018-09-02T14:51:47.025Z,32.92
2018-09-02T14:54:16.407Z,34.18
2018-09-02T14:56:45.873Z,35.33
2018-09-02T14:59:15.292Z,35.83
2018-09-02T15:01:44.693Z,34.92
2018-09-02T15:04:14.650Z,35.94
2018-09-02T15:06:43.980Z,35.11
2018-09-02T15:09:13.441Z,34.12
2018-09-02T15:11:42.802Z,33.88
2018-09-02T15:14:12.220Z,33.28
2018-09-02T15:16:41.658Z,32.82
2018-09-02T15:19:11.025Z,32.93
2018-09-02T15:21:40.444Z,32.81
2018-09-02T15:24:10.034Z,32.65
2018-09-02T15:26:39.841Z,33.92
2018-09-02T15:29:09.257Z,34.89
2018-09-02T15:31:38.831Z,34.17
2018-09-02T15:34:08.401Z,34.54
2018-09-02T15:36:37.801Z,35.25
2018-09-02T15:39:10.691Z,36.89
2018-09-02T15:41:40.731Z,36.13
2018-09-02T15:44:11.556Z,37.21
2018-09-02T15:46:41.104Z,37.94
2018-09-02T15:49:10.658Z,37.89
2018-09-02T15:51:40.144Z,38.12
2018-09-02T15:54:09.826Z,38.69
2018-09-02T15:56:39.311Z,37.82
2018-09-02T15:59:08.993Z,38.41
2018-09-02T16:01:39.288Z,39.63
2018-09-02T16:04:08.940Z,39.28
2018-09-02T16:06:38.667Z,38.82
2018-09-02T16:09:10.662Z,39.00
2018-09-02T16:11:40.287Z,40.49
2018-09-02T16:14:10.093Z,43.04
2018-09-02T16:16:40.059Z,43.10
2018-09-02T16:19:09.489Z,44.03
2018-09-02T16:21:38.950Z,42.72
2018-09-02T16:24:08.324Z,43.44
2018-09-02T16:26:37.946Z,43.34
2018-09-02T16:29:07.405Z,43.73
2018-09-02T16:31:37.153Z,43.84
2018-09-02T16:34:06.795Z,43.80
2018-09-02T16:36:36.306Z,45.79
2018-09-02T16:39:07.379Z,45.42
2018-09-02T16:41:36.830Z,44.86
2018-09-02T16:44:06.726Z,44.94
2018-09-02T16:46:36.404Z,45.56
2018-09-02T16:49:06.338Z,47.50
2018-09-02T16:51:35.866Z,48.19
2018-09-02T16:54:05.537Z,49.04
2018-09-02T16:56:35.017Z,49.92
2018-09-02T16:59:04.355Z,48.67
2018-09-02T17:01:33.770Z,49.88
2018-09-02T17:04:05.673Z,50.60
2018-09-02T17:06:35.270Z,50.13
2018-09-02T17:09:07.419Z,50.31
2018-09-02T17:11:37.135Z,50.51
2018-09-02T17:14:06.524Z,51.60
2018-09-02T17:16:36.004Z,52.44
2018-09-02T17:19:10.653Z,52.12
2018-09-02T17:21:40.230Z,51.92
2018-09-02T17:24:09.701Z,52.57
2018-09-02T17:26:39.249Z,51.69
2018-09-02T17:29:09.151Z,52.47
2018-09-02T17:31:38.564Z,52.91
2018-09-02T17:34:08.189Z,53.26
2018-09-02T17:36:38.338Z,54.16
2018-09-02T17:39:11.365Z,53.98
2018-09-02T17:41:41.175Z,53.43
2018-09-02T17:44:11.511Z,55.24
2018-09-02T17:46:41.297Z,54.92
2018-09-02T17:49:11.440Z,55.65
2018-09-02T17:51:41.080Z,55.20
2018-09-02T17:54:10.809Z,56.32
2018-09-02T17:56:40.165Z,56.48
2018-09-02T17:59:09.619Z,56.12
2018-09-02T18:01:39.124Z,56.93
2018-09-02T18:04:13.037Z,56.00
2018-09-02T18:06:42.541Z,56.74
2018-09-02T18:09:12.790Z,57.93
2018-09-02T18:11:42.257Z,56.70
2018-09-02T18:14:11.835Z,58.12
2018-09-02T18:16:41.368Z,58.33
2018-09-02T18:19:11.064Z,58.71
2018-09-02T18:21:40.522Z,57.50
2018-09-02T18:24:10.155Z,58.41
2018-09-02T18:26:40.064Z,57.94
2018-09-02T18:29:09.762Z,58.92
2018-09-02T18:31:39.195Z,58.52
2018-09-02T18:34:09.343Z,58.81
2018-09-02T18:36:39.539Z,57.76
2018-09-02T18:39:11.420Z,59.27
2018-09-02T18:41:42.098Z,58.29
2018-09-02T18:44:11.693Z,58.45
2018-09-02T18:46:41.402Z,58.15
2018-09-02T18:49:11.088Z,58.66
2018-09-02T18:51:40.664Z,59.33
2018-09-02T18:54:10.200Z,60.29
2018-09-02T18:56:39.623Z,59.60
2018-09-02T18:59:09.362Z,58.87
2018-09-02T19:01:38.862Z,59.93
2018-09-02T19:04:08.673Z,59.80
2018-09-02T19:06:38.370Z,59.82
2018-09-02T19:09:10.288Z,60.40
2018-09-02T19:11:39.841Z,61.61
2018-09-02T19:14:09.196Z,61.11
2018-09-02T19:16:38.660Z,61.81
2018-09-02T19:19:08.089Z,62.74
2018-09-02T19:21:37.725Z,62.22
2018-09-02T19:24:07.646Z,63.44
2018-09-02T19:26:37.338Z,62.67
2018-09-02T19:29:06.936Z,62.29
2018-09-02T19:31:36.664Z,62.23
2018-09-02T19:34:06.138Z,63.29
2018-09-02T19:36:35.732Z,63.28
2018-09-02T19:39:09.476Z,62.73
2018-09-02T19:41:39.276Z,63.23
2018-09-02T19:44:08.980Z,62.32
2018-09-02T19:46:39.037Z,62.63
2018-09-02T19:49:08.612Z,62.63
2018-09-02T19:51:38.315Z,62.19
2018-09-02T19:54:08.474Z,61.96
2018-09-02T19:56:37.927Z,61.68
2018-09-02T19:59:07.349Z,61.02
2018-09-02T20:01:36.820Z,60.60
2018-09-02T20:04:06.378Z,61.47
2018-09-02T20:06:36.554Z,62.21
2018-09-02T20:09:11.485Z,61.42
2018-09-02T20:11:41.142Z,61.35
2018-09-02T20:14:11.067Z,61.67
2018-09-02T20:16:40.776Z,61.92
2018-09-02T20:19:11.279Z,62.52
2018-09-02T20:21:40.754Z,61.87
2018-09-02T20:24:10.443Z,62.20
2018-09-02T20:26:39.937Z,61.46
2018-09-02T20:29:10.307Z,61.30
2018-09-02T20:31:40.415Z,60.98
2018-09-02T20:34:10.077Z,60.64
2018-09-02T20:36:39.986Z,60.17
2018-09-02T20:39:10.391Z,60.30
2018-09-02T20:41:40.084Z,59.45
2018-09-02T20:44:09.685Z,59.01
2018-09-02T20:46:39.216Z,58.70
2018-09-02T20:49:08.862Z,59.58
2018-09-02T20:51:38.459Z,58.73
2018-09-02T20:54:07.967Z,58.54
2018-09-02T20:56:37.362Z,58.38
2018-09-02T20:59:06.776Z,58.01
2018-09-02T21:01:36.307Z,59.04
2018-09-02T21:04:05.792Z,58.77
2018-09-02T21:06:35.320Z,58.58
2018-09-02T21:09:08.334Z,58.68
2018-09-02T21:11:37.862Z,58.23
2018-09-02T21:14:11.602Z,58.03
2018-09-02T21:16:42.355Z,57.70
2018-09-02T21:19:11.844Z,57.74
2018-09-02T21:21:41.363Z,57.94
2018-09-02T21:24:10.796Z,58.66
2018-09-02T21:26:41.156Z,58.40
2018-09-02T21:29:14.528Z,58.89
2018-09-02T21:31:44.568Z,57.73
2018-09-02T21:34:14.675Z,58.63
2018-09-02T21:36:44.825Z,59.03
2018-09-02T21:39:15.538Z,58.40
2018-09-02T21:41:45.004Z,59.09
2018-09-02T21:44:14.417Z,58.73
2018-09-02T21:46:44.169Z,58.62
2018-09-02T21:49:13.490Z,58.84
2018-09-02T21:51:42.822Z,59.33
2018-09-02T21:54:12.315Z,60.07
2018-09-02T21:56:41.785Z,60.09
2018-09-02T21:59:11.390Z,59.27
2018-09-02T22:01:40.759Z,59.54
2018-09-02T22:04:10.779Z,59.66
2018-09-02T22:06:40.076Z,59.64
2018-09-02T22:09:14.673Z,60.50
2018-09-02T22:11:44.717Z,61.49
2018-09-02T22:14:14.803Z,61.44
2018-09-02T22:16:44.860Z,62.66
2018-09-02T22:19:14.403Z,62.58
2018-09-02T22:21:43.732Z,61.77
2018-09-02T22:24:13.163Z,61.18
2018-09-02T22:26:42.630Z,62.47
2018-09-02T22:29:12.043Z,62.84
2018-09-02T22:31:41.620Z,62.65
2018-09-02T22:34:10.968Z,61.54
2018-09-02T22:36:40.359Z,62.02
2018-09-02T22:39:09.797Z,62.49
2018-09-02T22:41:39.119Z,61.73
2018-09-02T22:44:08.511Z,62.25
2018-09-02T22:46:37.842Z,62.29
2018-09-02T22:49:07.211Z,61.91
2018-09-02T22:51:36.751Z,62.84
2018-09-02T22:54:06.263Z,62.32
2018-09-02T22:56:35.622Z,62.23
2018-09-02T22:59:05.150Z,62.60
2018-09-02T23:01:34.643Z,62.85
2018-09-02T23:04:04.055Z,63.79
2018-09-02T23:06:33.423Z,64.14
2018-09-02T23:09:02.882Z,63.82
2018-09-02T23:11:32.286Z,64.18
2018-09-02T23:14:01.620Z,63.96
2018-09-02T23:16:31.508Z,63.37
2018-09-02T23:19:00.805Z,64.02
2018-09-02T23:21:30.295Z,64.61
2018-09-02T23:23:59.743Z,64.55
2018-09-02T23:26:29.087Z,64.59
2018-09-02T23:28:58.365Z,65.78
2018-09-02T23:31:27.686Z,66.19
2018-09-02T23:33:57.037Z,66.57
2018-09-02T23:36:26.621Z,65.94
2018-09-02T23:38:56.012Z,66.48
2018-09-02T23:41:25.562Z,66.39
2018-09-02T23:43:54.940Z,65.87
2018-09-02T23:46:24.498Z,66.12
2018-09-02T23:48:53.848Z,66.57
2018-09-02T23:51:23.232Z,66.21
2018-09-02T23:53:52.606Z,65.43
2018-09-02T23:56:21.974Z,66.09
2018-09-02T23:58:51.299Z,66.38
